createdAt,value
2019-04-29T00:01:22.793Z,27.80
2019-04-29T00:03:54.983Z,27.80
2019-04-29T00:06:27.143Z,27.80
2019-04-29T00:08:59.524Z,27.90
2019-04-29T00:11:31.735Z,27.90
2019-04-29T00:14:04.113Z,28.00
2019-04-29T00:16:37.821Z,28.00
2019-04-29T00:19:11.832Z,28.10
2019-04-29T00:21:48.588Z,28.10
2019-04-29T00:24:20.782Z,28.20
2019-04-29T00:26:53.135Z,28.20
2019-04-29T00:29:25.177Z,28.20
2019-04-29T00:31:57.082Z,28.30
2019-04-29T00:34:29.943Z,28.40
2019-04-29T00:37:03.177Z,28.40
2019-04-29T00:39:36.860Z,28.50
2019-04-29T00:42:08.523Z,28.60
2019-04-29T00:44:40.557Z,28.70
2019-04-29T00:47:33.254Z,28.70
2019-04-29T00:50:06.898Z,28.80
2019-04-29T00:52:39.432Z,28.80
2019-04-29T00:55:13.144Z,28.90
2019-04-29T00:57:46.429Z,28.90
2019-04-29T01:00:21.166Z,29.00
2019-04-29T01:02:53.705Z,29.10
2019-04-29T01:05:26.592Z,29.20
2019-04-29T01:07:58.866Z,29.20
2019-04-29T01:10:31.526Z,29.30
2019-04-29T01:13:03.501Z,29.40
2019-04-29T01:15:35.747Z,29.50
2019-04-29T01:18:08.405Z,29.50
2019-04-29T01:20:41.791Z,29.60
2019-04-29T01:23:13.840Z,29.60
2019-04-29T01:25:53.872Z,29.70
2019-04-29T01:28:27.408Z,29.80
2019-04-29T01:31:04.601Z,29.80
2019-04-29T01:33:36.645Z,29.90
2019-04-29T01:36:10.458Z,29.90
2019-04-29T01:38:42.512Z,30.00
2019-04-29T01:41:16.100Z,30.00
2019-04-29T01:43:50.152Z,30.00
2019-04-29T01:46:22.333Z,30.10
2019-04-29T01:48:55.419Z,30.20
2019-04-29T01:51:30.285Z,30.20
2019-04-29T01:54:05.163Z,30.30
2019-04-29T01:56:37.642Z,30.30
2019-04-29T01:59:12.726Z,30.30
2019-04-29T02:01:44.915Z,30.30
2019-04-29T02:04:41.842Z,30.40
2019-04-29T02:07:15.007Z,30.30
2019-04-29T02:09:49.233Z,30.30
2019-04-29T02:12:32.539Z,30.40
2019-04-29T02:15:05.301Z,30.40
2019-04-29T02:17:37.178Z,30.40
2019-04-29T02:20:10.787Z,30.50
2019-04-29T02:22:44.951Z,30.50
2019-04-29T02:25:19.067Z,30.50
2019-04-29T02:27:51.214Z,30.60
2019-04-29T02:30:26.974Z,30.70
2019-04-29T02:32:59.270Z,30.70
2019-04-29T02:35:31.615Z,30.80
2019-04-29T02:38:04.983Z,30.80
2019-04-29T02:40:42.128Z,30.90
2019-04-29T02:43:15.505Z,30.90
2019-04-29T02:45:47.553Z,31.00
2019-04-29T02:48:19.726Z,31.20
2019-04-29T02:50:51.764Z,31.20
2019-04-29T02:53:24.287Z,31.40
2019-04-29T02:55:57.746Z,31.50
2019-04-29T02:58:31.864Z,31.60
2019-04-29T03:01:10.464Z,31.70
2019-04-29T03:03:44.194Z,31.80
2019-04-29T03:06:16.807Z,31.80
2019-04-29T03:08:48.932Z,31.90
2019-04-29T03:11:23.008Z,32.00
2019-04-29T03:13:55.002Z,32.00
2019-04-29T03:16:34.828Z,32.10
2019-04-29T03:19:08.439Z,32.20
2019-04-29T03:21:42.292Z,32.20
2019-04-29T03:24:17.006Z,32.30
2019-04-29T03:26:49.548Z,32.30
2019-04-29T03:29:23.081Z,32.40
2019-04-29T03:31:57.497Z,32.40
2019-04-29T03:34:29.620Z,32.50
2019-04-29T03:37:03.097Z,32.60
2019-04-29T03:39:36.424Z,32.70
2019-04-29T03:42:08.629Z,32.80
2019-04-29T03:44:40.776Z,32.80
2019-04-29T03:47:18.596Z,32.90
2019-04-29T03:50:09.165Z,33.00
2019-04-29T03:52:41.624Z,33.10
2019-04-29T03:55:14.417Z,33.20
2019-04-29T03:57:46.493Z,33.40
2019-04-29T04:00:20.194Z,33.40
2019-04-29T04:02:57.890Z,33.50
2019-04-29T04:05:32.377Z,33.60
2019-04-29T04:08:06.077Z,33.80
2019-04-29T04:10:39.788Z,34.00
2019-04-29T04:13:12.092Z,34.10
2019-04-29T04:15:44.073Z,34.20
2019-04-29T04:18:18.485Z,34.30
2019-04-29T04:20:51.250Z,34.40
2019-04-29T04:23:23.147Z,34.50
2019-04-29T04:25:55.912Z,34.60
2019-04-29T04:28:27.924Z,34.70
2019-04-29T04:31:00.154Z,34.90
2019-04-29T04:33:32.065Z,35.00
2019-04-29T04:36:04.357Z,35.10
2019-04-29T04:38:38.162Z,35.10
2019-04-29T04:43:55.241Z,35.30
2019-04-29T04:46:27.718Z,35.40
2019-04-29T04:49:00.034Z,35.60
2019-04-29T04:51:36.534Z,35.70
2019-04-29T04:54:08.806Z,35.90
2019-04-29T04:56:41.177Z,36.00
2019-04-29T04:59:13.173Z,36.10
2019-04-29T05:01:44.993Z,36.30
2019-04-29T05:04:17.474Z,36.40
2019-04-29T05:06:49.476Z,36.40
2019-04-29T05:09:21.466Z,36.40
2019-04-29T05:11:54.029Z,36.40
2019-04-29T05:14:26.373Z,36.40
2019-04-29T05:17:18.753Z,36.60
2019-04-29T05:19:51.389Z,36.70
2019-04-29T05:22:24.756Z,36.80
2019-04-29T05:24:56.976Z,37.00
2019-04-29T05:27:49.705Z,37.20
2019-04-29T05:30:22.209Z,37.40
2019-04-29T05:32:54.059Z,37.60
2019-04-29T05:35:28.356Z,37.70
2019-04-29T05:38:02.056Z,37.70
2019-04-29T05:40:35.750Z,37.80
2019-04-29T05:43:10.177Z,37.80
2019-04-29T05:45:46.301Z,37.80
2019-04-29T05:48:38.000Z,37.80
2019-04-29T05:51:13.106Z,37.80
2019-04-29T05:53:53.194Z,37.80
2019-04-29T05:56:20.602Z,37.90
2019-04-29T05:59:02.547Z,38.00
2019-04-29T06:01:34.663Z,38.10
2019-04-29T06:04:07.378Z,38.10
2019-04-29T06:06:39.504Z,38.10
2019-04-29T06:09:16.604Z,38.20
2019-04-29T06:11:46.003Z,38.20
2019-04-29T06:14:22.057Z,38.30
2019-04-29T06:16:57.249Z,38.40
2019-04-29T06:19:26.678Z,38.60
2019-04-29T06:21:59.836Z,38.80
2019-04-29T06:24:32.218Z,38.90
2019-04-29T06:27:05.383Z,38.90
2019-04-29T06:29:38.424Z,38.80
2019-04-29T06:32:10.649Z,38.80
2019-04-29T06:34:42.916Z,38.80
2019-04-29T06:37:15.285Z,38.80
2019-04-29T06:39:50.593Z,38.90
2019-04-29T06:42:22.918Z,38.90
2019-04-29T06:44:55.168Z,38.80
2019-04-29T06:47:47.108Z,38.90
2019-04-29T06:50:20.118Z,38.90
2019-04-29T06:52:52.308Z,39.00
2019-04-29T06:55:24.399Z,39.10
2019-04-29T06:57:56.600Z,39.10
2019-04-29T07:00:33.111Z,39.10
2019-04-29T07:03:11.291Z,39.20
2019-04-29T07:06:01.639Z,39.20
2019-04-29T07:08:33.883Z,39.30
2019-04-29T07:11:05.774Z,39.30
2019-04-29T07:13:41.068Z,39.30
2019-04-29T07:16:13.173Z,39.40
2019-04-29T07:18:49.274Z,39.40
2019-04-29T07:21:19.022Z,39.40
2019-04-29T07:23:51.212Z,39.40
2019-04-29T07:26:24.040Z,39.40
2019-04-29T07:28:56.118Z,39.40
2019-04-29T07:31:35.871Z,39.40
2019-04-29T07:34:08.578Z,39.50
2019-04-29T07:36:41.449Z,39.60
2019-04-29T07:39:13.616Z,39.60
2019-04-29T07:41:49.510Z,39.60
2019-04-29T07:44:20.030Z,39.60
2019-04-29T07:47:00.259Z,39.70
2019-04-29T07:49:27.607Z,39.70
2019-04-29T07:51:59.934Z,39.50
2019-04-29T07:54:32.063Z,39.30
2019-04-29T07:57:04.642Z,39.30
2019-04-29T07:59:38.460Z,39.30
2019-04-29T08:02:12.181Z,39.40
2019-04-29T08:04:44.175Z,39.50
2019-04-29T08:07:17.824Z,39.50
2019-04-29T08:09:50.137Z,39.60
2019-04-29T08:12:24.885Z,39.60
2019-04-29T08:15:07.215Z,39.70
2019-04-29T08:17:32.460Z,39.60
2019-04-29T08:20:05.315Z,39.60
2019-04-29T08:22:38.988Z,39.60
2019-04-29T08:25:12.035Z,39.60
2019-04-29T08:27:44.522Z,39.60
2019-04-29T08:30:18.331Z,39.70
2019-04-29T08:32:52.114Z,39.70
2019-04-29T08:35:24.330Z,39.70
2019-04-29T08:37:56.794Z,39.80
2019-04-29T08:40:29.327Z,39.80
2019-04-29T08:43:03.874Z,39.80
2019-04-29T08:45:39.064Z,39.80
2019-04-29T08:48:11.612Z,39.80
2019-04-29T08:50:43.650Z,39.80
2019-04-29T08:53:15.925Z,39.80
2019-04-29T08:55:48.683Z,39.80
2019-04-29T08:58:20.540Z,39.80
2019-04-29T09:00:55.825Z,39.80
2019-04-29T09:03:46.814Z,39.80
2019-04-29T09:06:19.616Z,39.80
2019-04-29T09:08:55.431Z,39.80
2019-04-29T09:11:25.275Z,39.90
2019-04-29T09:13:57.504Z,39.90
2019-04-29T09:16:29.835Z,39.90
2019-04-29T09:19:03.120Z,40.00
2019-04-29T09:21:36.987Z,40.00
2019-04-29T09:24:08.940Z,39.90
2019-04-29T09:26:42.491Z,39.90
2019-04-29T09:29:16.014Z,39.90
2019-04-29T09:31:48.174Z,39.90
2019-04-29T09:34:24.645Z,39.90
2019-04-29T09:36:56.180Z,39.80
2019-04-29T09:39:42.000Z,39.80
2019-04-29T09:42:08.122Z,39.80
2019-04-29T09:44:42.862Z,39.70
2019-04-29T09:47:14.528Z,39.70
2019-04-29T09:49:46.608Z,39.70
2019-04-29T09:52:18.436Z,39.60
2019-04-29T09:54:50.850Z,39.60
2019-04-29T09:57:23.401Z,39.60
2019-04-29T10:00:05.443Z,39.60
2019-04-29T10:02:37.948Z,39.60
2019-04-29T10:05:14.482Z,39.50
2019-04-29T10:07:47.554Z,39.40
2019-04-29T10:10:19.789Z,39.30
2019-04-29T10:12:53.992Z,39.30
2019-04-29T10:15:27.597Z,39.30
2019-04-29T10:18:00.897Z,39.30
2019-04-29T10:20:34.666Z,39.20
2019-04-29T10:23:07.570Z,39.20
2019-04-29T10:25:40.532Z,39.20
2019-04-29T10:28:12.806Z,39.10
2019-04-29T10:30:45.476Z,39.10
2019-04-29T10:33:23.194Z,39.00
2019-04-29T10:35:56.115Z,39.00
2019-04-29T10:38:28.402Z,39.00
2019-04-29T10:41:22.780Z,38.90
2019-04-29T10:43:55.640Z,38.80
2019-04-29T10:46:29.201Z,38.80
2019-04-29T10:49:05.254Z,38.70
2019-04-29T10:51:37.611Z,38.60
2019-04-29T10:54:14.127Z,38.50
2019-04-29T10:56:44.944Z,38.40
2019-04-29T10:59:17.571Z,38.20
2019-04-29T11:02:01.773Z,38.10
2019-04-29T11:04:31.623Z,38.00
2019-04-29T11:07:13.891Z,37.80
2019-04-29T11:09:41.447Z,37.70
2019-04-29T11:12:14.717Z,37.60
2019-04-29T11:14:47.267Z,37.50
2019-04-29T11:17:22.765Z,37.40
2019-04-29T11:20:01.777Z,37.30
2019-04-29T11:22:55.601Z,37.10
2019-04-29T11:25:27.849Z,37.00
2019-04-29T11:28:01.426Z,36.90
2019-04-29T11:30:39.376Z,36.80
2019-04-29T11:33:11.292Z,36.70
2019-04-29T11:35:44.995Z,36.60
2019-04-29T11:38:22.503Z,36.60
2019-04-29T11:40:55.650Z,36.50
2019-04-29T11:43:28.794Z,36.40
2019-04-29T11:46:02.064Z,36.30
2019-04-29T11:48:43.389Z,36.30
2019-04-29T11:51:17.058Z,36.20
2019-04-29T11:53:49.438Z,36.20
2019-04-29T11:56:40.892Z,36.10
2019-04-29T11:59:14.467Z,36.00
2019-04-29T12:01:50.996Z,35.90
2019-04-29T12:04:21.890Z,35.90
2019-04-29T12:07:13.567Z,35.90
2019-04-29T12:09:46.529Z,35.80
2019-04-29T12:12:19.422Z,35.80
2019-04-29T12:14:52.841Z,35.70
2019-04-29T12:17:31.237Z,35.70
2019-04-29T12:20:15.269Z,35.70
2019-04-29T12:22:48.960Z,35.60
2019-04-29T12:25:23.051Z,35.60
2019-04-29T12:28:01.562Z,35.50
2019-04-29T12:30:34.621Z,35.50
2019-04-29T12:33:06.120Z,35.40
2019-04-29T12:35:51.554Z,35.40
2019-04-29T12:38:16.599Z,35.30
2019-04-29T12:40:54.696Z,35.30
2019-04-29T12:43:27.686Z,35.20
2019-04-29T12:46:10.523Z,35.20
2019-04-29T12:48:42.703Z,35.20
2019-04-29T12:51:17.013Z,35.10
2019-04-29T12:53:49.068Z,35.10
2019-04-29T12:56:43.138Z,35.10
2019-04-29T12:59:16.779Z,35.00
2019-04-29T13:01:55.943Z,35.00
2019-04-29T13:04:28.127Z,34.90
2019-04-29T13:07:10.862Z,34.90
2019-04-29T13:09:44.672Z,34.80
2019-04-29T13:12:19.326Z,34.80
2019-04-29T13:15:02.211Z,34.70
2019-04-29T13:17:30.387Z,34.60
2019-04-29T13:20:06.841Z,34.60
2019-04-29T13:22:36.943Z,34.60
2019-04-29T13:25:10.419Z,34.60
2019-04-29T13:27:42.404Z,34.60
2019-04-29T13:30:16.404Z,34.60
2019-04-29T13:32:48.758Z,34.60
2019-04-29T13:35:20.862Z,34.50
2019-04-29T13:37:53.090Z,34.50
2019-04-29T13:40:27.848Z,34.50
2019-04-29T13:43:00.716Z,34.50
2019-04-29T13:45:34.791Z,34.50
2019-04-29T13:48:27.677Z,34.40
2019-04-29T13:51:01.160Z,34.40
2019-04-29T13:53:33.508Z,34.40
2019-04-29T13:56:11.530Z,34.40
2019-04-29T13:58:51.297Z,34.40
2019-04-29T14:01:32.862Z,34.30
2019-04-29T14:04:00.153Z,34.30
2019-04-29T14:06:32.171Z,34.20
2019-04-29T14:09:05.619Z,34.20
2019-04-29T14:11:38.301Z,34.20
2019-04-29T14:14:10.266Z,34.10
2019-04-29T14:16:43.089Z,34.10
2019-04-29T14:19:20.446Z,34.10
2019-04-29T14:21:50.963Z,34.00
2019-04-29T14:24:23.687Z,34.00
2019-04-29T14:26:56.124Z,34.00
2019-04-29T14:29:30.261Z,34.00
2019-04-29T14:32:02.137Z,34.00
2019-04-29T14:34:36.732Z,34.00
2019-04-29T14:37:21.240Z,34.00
2019-04-29T14:39:45.888Z,34.00
2019-04-29T14:42:19.997Z,33.90
2019-04-29T14:44:53.797Z,33.90
2019-04-29T14:47:26.177Z,33.90
2019-04-29T14:50:00.646Z,33.80
2019-04-29T14:52:33.330Z,33.80
2019-04-29T14:55:07.062Z,33.80
2019-04-29T14:57:39.295Z,33.80
2019-04-29T15:00:13.758Z,33.70
2019-04-29T15:02:46.243Z,33.70
2019-04-29T15:05:18.425Z,33.70
2019-04-29T15:07:50.722Z,33.70
2019-04-29T15:10:26.598Z,33.70
2019-04-29T15:13:11.385Z,33.60
2019-04-29T15:15:35.383Z,33.60
2019-04-29T15:18:15.913Z,33.50
2019-04-29T15:20:44.190Z,33.50
2019-04-29T15:23:28.061Z,33.40
2019-04-29T15:25:50.087Z,33.40
2019-04-29T15:28:27.146Z,33.40
2019-04-29T15:30:59.677Z,33.30
2019-04-29T15:33:34.738Z,33.30
2019-04-29T15:36:05.267Z,33.30
2019-04-29T15:38:39.870Z,33.20
2019-04-29T15:41:11.949Z,33.20
2019-04-29T15:43:47.840Z,33.20
2019-04-29T15:46:19.750Z,33.10
2019-04-29T15:48:52.513Z,33.10
2019-04-29T15:51:25.591Z,33.00
2019-04-29T15:53:57.759Z,33.00
2019-04-29T15:56:33.783Z,33.00
2019-04-29T15:59:08.806Z,33.00
2019-04-29T16:01:41.348Z,33.00
2019-04-29T16:04:13.272Z,32.90
2019-04-29T16:06:45.160Z,32.90
2019-04-29T16:09:18.600Z,32.90
2019-04-29T16:11:52.199Z,32.90
2019-04-29T16:14:25.821Z,32.80
2019-04-29T16:17:00.959Z,32.80
2019-04-29T16:19:52.389Z,32.80
2019-04-29T16:22:24.477Z,32.80
2019-04-29T16:24:59.499Z,32.80
2019-04-29T16:27:30.566Z,32.80
2019-04-29T16:30:02.532Z,32.70
2019-04-29T16:32:36.084Z,32.70
2019-04-29T16:35:09.675Z,32.70
2019-04-29T16:37:42.417Z,32.70
2019-04-29T16:40:15.568Z,32.60
2019-04-29T16:42:49.048Z,32.60
2019-04-29T16:45:22.961Z,32.50
2019-04-29T16:47:56.102Z,32.50
2019-04-29T16:50:28.533Z,32.50
2019-04-29T16:53:00.696Z,32.50
2019-04-29T16:55:36.010Z,32.40
2019-04-29T16:58:16.385Z,32.40
2019-04-29T17:00:46.830Z,32.40
2019-04-29T17:03:16.108Z,32.40
2019-04-29T17:05:48.199Z,32.40
2019-04-29T17:08:22.135Z,32.30
2019-04-29T17:10:55.542Z,32.30
2019-04-29T17:13:27.381Z,32.30
2019-04-29T17:15:59.873Z,32.20
2019-04-29T17:18:31.938Z,32.20
2019-04-29T17:21:07.375Z,32.20
2019-04-29T17:23:38.918Z,32.10
2019-04-29T17:26:11.505Z,32.10
2019-04-29T17:28:43.524Z,32.10
2019-04-29T17:31:17.577Z,32.00
2019-04-29T17:33:52.076Z,32.00
2019-04-29T17:36:25.823Z,32.00
2019-04-29T17:38:58.131Z,31.90
2019-04-29T17:41:30.229Z,31.90
2019-04-29T17:44:03.615Z,31.80
2019-04-29T17:46:37.522Z,31.80
2019-04-29T17:49:12.038Z,31.80
2019-04-29T17:51:45.896Z,31.80
2019-04-29T17:54:19.819Z,31.80
2019-04-29T17:57:09.939Z,31.70
2019-04-29T17:59:30.716Z,31.70
2019-04-29T18:02:05.398Z,31.70
2019-04-29T18:04:38.848Z,31.70
2019-04-29T18:07:12.906Z,31.70
2019-04-29T18:09:47.349Z,31.60
2019-04-29T18:12:20.443Z,31.60
2019-04-29T18:14:54.929Z,31.50
2019-04-29T18:17:31.110Z,31.60
2019-04-29T18:20:08.518Z,31.50
2019-04-29T18:22:39.365Z,31.50
2019-04-29T18:25:12.924Z,31.50
2019-04-29T18:27:49.025Z,31.50
2019-04-29T18:30:33.195Z,31.50
2019-04-29T18:32:56.249Z,31.40
2019-04-29T18:35:28.399Z,31.40
2019-04-29T18:38:00.586Z,31.30
2019-04-29T18:40:35.756Z,31.30
2019-04-29T18:43:06.996Z,31.30
2019-04-29T18:45:39.441Z,31.30
2019-04-29T18:48:16.686Z,31.30
2019-04-29T18:50:46.334Z,31.20
2019-04-29T18:53:18.292Z,31.20
2019-04-29T18:55:50.452Z,31.20
2019-04-29T18:58:22.630Z,31.20
2019-04-29T19:00:56.400Z,31.20
2019-04-29T19:03:33.234Z,31.20
2019-04-29T19:06:10.381Z,31.20
2019-04-29T19:08:39.110Z,31.10
2019-04-29T19:11:11.230Z,31.10
2019-04-29T19:13:43.615Z,31.10
2019-04-29T19:16:21.619Z,31.00
2019-04-29T19:18:52.021Z,31.00
2019-04-29T19:21:30.491Z,31.00
2019-04-29T19:24:00.690Z,31.00
2019-04-29T19:26:32.808Z,31.00
2019-04-29T19:29:08.148Z,31.00
2019-04-29T19:31:46.798Z,31.00
2019-04-29T19:34:14.601Z,31.00
2019-04-29T19:36:50.668Z,31.00
2019-04-29T19:39:21.788Z,31.00
2019-04-29T19:41:55.735Z,30.90
2019-04-29T19:44:33.267Z,30.90
2019-04-29T19:47:01.859Z,30.90
2019-04-29T19:49:35.850Z,30.90
2019-04-29T19:52:09.118Z,30.90
2019-04-29T19:54:41.477Z,30.90
2019-04-29T19:57:14.953Z,30.90
2019-04-29T19:59:51.222Z,30.90
2019-04-29T20:02:21.068Z,30.90
2019-04-29T20:04:58.989Z,30.80
2019-04-29T20:07:30.347Z,30.80
2019-04-29T20:10:05.569Z,30.80
2019-04-29T20:12:37.699Z,30.80
2019-04-29T20:15:11.367Z,30.80
2019-04-29T20:17:48.963Z,30.70
2019-04-29T20:20:40.018Z,30.70
2019-04-29T20:23:13.093Z,30.70
2019-04-29T20:25:48.034Z,30.70
2019-04-29T20:28:21.364Z,30.60
2019-04-29T20:30:57.037Z,30.60
2019-04-29T20:33:27.249Z,30.60
2019-04-29T20:36:02.389Z,30.60
2019-04-29T20:38:34.984Z,30.60
2019-04-29T20:41:08.232Z,30.60
2019-04-29T20:43:40.925Z,30.50
2019-04-29T20:46:13.171Z,30.50
2019-04-29T20:48:45.656Z,30.50
2019-04-29T20:51:18.550Z,30.50
2019-04-29T20:53:52.780Z,30.50
2019-04-29T20:56:28.861Z,30.50
2019-04-29T20:59:01.997Z,30.50
2019-04-29T21:01:38.175Z,30.40
2019-04-29T21:04:08.385Z,30.40
2019-04-29T21:06:57.546Z,30.40
2019-04-29T21:09:16.554Z,30.30
2019-04-29T21:11:51.624Z,30.30
2019-04-29T21:14:27.219Z,30.30
2019-04-29T21:17:02.280Z,30.30
2019-04-29T21:19:33.174Z,30.30
2019-04-29T21:22:05.996Z,30.30
2019-04-29T21:24:38.031Z,30.30
2019-04-29T21:27:10.257Z,30.30
2019-04-29T21:29:42.591Z,30.20
2019-04-29T21:32:15.610Z,30.20
2019-04-29T21:34:49.632Z,30.20
2019-04-29T21:37:23.232Z,30.20
2019-04-29T21:39:56.670Z,30.10
2019-04-29T21:42:35.781Z,30.10
2019-04-29T21:45:08.294Z,30.10
2019-04-29T21:47:44.328Z,30.10
2019-04-29T21:50:12.073Z,30.00
2019-04-29T21:52:44.716Z,30.00
2019-04-29T21:55:20.745Z,30.00
2019-04-29T21:57:54.496Z,30.00
2019-04-29T22:00:26.984Z,30.00
2019-04-29T22:02:59.175Z,29.90
2019-04-29T22:05:31.745Z,29.90
2019-04-29T22:08:05.174Z,29.90
2019-04-29T22:10:37.343Z,29.90
2019-04-29T22:13:10.528Z,29.80
2019-04-29T22:15:42.696Z,29.80
2019-04-29T22:18:17.840Z,29.80
2019-04-29T22:20:49.157Z,29.80
2019-04-29T22:23:21.613Z,29.80
2019-04-29T22:25:54.764Z,29.80
2019-04-29T22:28:29.366Z,29.70
2019-04-29T22:31:01.394Z,29.70
2019-04-29T22:33:38.524Z,29.70
2019-04-29T22:36:10.161Z,29.70
2019-04-29T22:38:48.613Z,29.60
2019-04-29T22:41:20.297Z,29.60
2019-04-29T22:43:54.656Z,29.60
2019-04-29T22:46:28.127Z,29.60
2019-04-29T22:49:00.319Z,29.60
2019-04-29T22:51:32.369Z,29.60
2019-04-29T22:54:04.511Z,29.60
2019-04-29T22:56:37.428Z,29.60
2019-04-29T22:59:09.539Z,29.60
2019-04-29T23:01:42.271Z,29.60
2019-04-29T23:04:17.889Z,29.60
2019-04-29T23:06:50.204Z,29.60
2019-04-29T23:09:22.442Z,29.60
2019-04-29T23:11:55.711Z,29.60
2019-04-29T23:14:27.928Z,29.60
2019-04-29T23:17:00.240Z,29.60
2019-04-29T23:19:32.231Z,29.60
2019-04-29T23:22:06.914Z,29.60
2019-04-29T23:24:40.823Z,29.60
2019-04-29T23:27:18.206Z,29.70
2019-04-29T23:29:46.729Z,29.60
2019-04-29T23:32:19.028Z,29.70
2019-04-29T23:34:51.105Z,29.70
2019-04-29T23:37:23.800Z,29.70
2019-04-29T23:39:56.901Z,29.70
2019-04-29T23:42:29.399Z,29.70
2019-04-29T23:45:01.556Z,29.70
2019-04-29T23:47:35.680Z,29.70
2019-04-29T23:50:09.392Z,29.70
2019-04-29T23:52:42.842Z,29.70
2019-04-29T23:55:20.384Z,29.80
2019-04-29T23:57:55.548Z,29.80
